createdAt,value
2022-11-20T00:01:34.841Z,0.10
2022-11-20T00:04:03.106Z,-0.08
2022-11-20T00:06:31.577Z,-0.25
2022-11-20T00:09:02.742Z,-0.44
2022-11-20T00:11:32.950Z,0.30
2022-11-20T00:14:03.576Z,3.91
2022-11-20T00:16:33.876Z,5.07
2022-11-20T00:19:02.642Z,3.72
2022-11-20T00:21:31.519Z,2.57
2022-11-20T00:24:00.263Z,1.81
2022-11-20T00:26:30.185Z,1.29
2022-11-20T00:29:02.343Z,0.90
2022-11-20T00:31:31.745Z,0.56
2022-11-20T00:33:59.823Z,0.25
2022-11-20T00:36:29.742Z,-0.01
2022-11-20T00:38:59.955Z,-0.23
2022-11-20T00:41:30.174Z,-0.44
2022-11-20T00:43:58.780Z,-0.63
2022-11-20T00:46:28.471Z,-0.78
2022-11-20T00:48:56.641Z,-0.25
2022-11-20T00:51:27.171Z,3.38
2022-11-20T00:53:59.308Z,5.24
2022-11-20T00:56:27.614Z,3.88
2022-11-20T00:58:55.887Z,2.61
2022-11-20T01:01:27.576Z,1.78
2022-11-20T01:03:58.277Z,1.20
2022-11-20T01:06:30.240Z,0.76
2022-11-20T01:09:00.772Z,0.39
2022-11-20T01:11:34.791Z,0.07
2022-11-20T01:14:06.034Z,-0.23
2022-11-20T01:16:37.355Z,-0.50
2022-11-20T01:19:08.412Z,-0.73
2022-11-20T01:21:40.173Z,-0.11
2022-11-20T01:24:09.266Z,3.79
2022-11-20T01:26:40.306Z,4.93
2022-11-20T01:29:25.133Z,3.49
2022-11-20T01:31:54.106Z,2.17
2022-11-20T01:34:23.711Z,1.41
2022-11-20T01:36:54.191Z,0.90
2022-11-20T01:39:25.621Z,0.51
2022-11-20T01:42:14.198Z,0.20
2022-11-20T01:44:53.022Z,-0.09
2022-11-20T01:47:26.932Z,-0.32
2022-11-20T01:50:12.524Z,-0.54
2022-11-20T01:52:49.594Z,-0.75
2022-11-20T01:55:27.189Z,-0.96
2022-11-20T01:57:56.586Z,-0.27
2022-11-20T02:00:24.869Z,3.49
2022-11-20T02:02:56.932Z,4.95
2022-11-20T02:05:37.075Z,3.54
2022-11-20T02:08:07.619Z,2.23
2022-11-20T02:10:36.184Z,1.44
2022-11-20T02:13:23.831Z,0.90
2022-11-20T02:15:52.922Z,0.50
2022-11-20T02:18:22.431Z,0.22
2022-11-20T02:20:56.337Z,-0.02
2022-11-20T02:24:02.297Z,-0.25
2022-11-20T02:26:32.926Z,-0.52
2022-11-20T02:29:02.534Z,-0.74
2022-11-20T02:31:35.111Z,-0.92
2022-11-20T02:34:03.386Z,-1.09
2022-11-20T02:36:34.723Z,-0.44
2022-11-20T02:39:04.751Z,3.21
2022-11-20T02:41:38.352Z,4.75
2022-11-20T02:44:06.961Z,3.39
2022-11-20T02:46:35.415Z,2.21
2022-11-20T02:49:05.085Z,1.42
2022-11-20T02:51:33.609Z,0.87
2022-11-20T02:54:01.699Z,0.47
2022-11-20T02:56:29.955Z,0.14
2022-11-20T02:58:58.141Z,-0.14
2022-11-20T03:01:26.334Z,-0.39
2022-11-20T03:03:55.913Z,-0.61
2022-11-20T03:06:23.980Z,-0.80
2022-11-20T03:08:52.154Z,-0.99
2022-11-20T03:11:20.939Z,-1.18
2022-11-20T03:13:49.012Z,-1.35
2022-11-20T03:16:22.510Z,-1.49
2022-11-20T03:18:53.346Z,-0.80
2022-11-20T03:21:21.425Z,2.78
2022-11-20T03:23:49.489Z,4.40
2022-11-20T03:26:20.199Z,3.14
2022-11-20T03:28:51.366Z,1.93
2022-11-20T03:31:22.983Z,1.11
2022-11-20T03:33:51.763Z,0.56
2022-11-20T03:36:21.651Z,0.18
2022-11-20T03:38:50.617Z,-0.13
2022-11-20T03:41:21.653Z,-0.39
2022-11-20T03:43:51.465Z,-0.64
2022-11-20T03:46:19.776Z,-0.85
2022-11-20T03:48:51.634Z,-1.06
2022-11-20T03:51:30.119Z,-1.24
2022-11-20T03:54:01.158Z,-1.41
2022-11-20T03:56:31.789Z,-1.55
2022-11-20T03:59:00.166Z,-1.67
2022-11-20T04:01:32.309Z,-1.79
2022-11-20T04:04:00.612Z,-1.93
2022-11-20T04:06:36.362Z,-1.39
2022-11-20T04:09:05.979Z,2.35
2022-11-20T04:11:37.214Z,4.34
2022-11-20T04:14:07.743Z,3.08
2022-11-20T04:16:37.327Z,1.78
2022-11-20T04:19:08.084Z,0.95
2022-11-20T04:21:36.257Z,0.40
2022-11-20T04:24:05.055Z,-0.01
2022-11-20T04:26:34.046Z,-0.34
2022-11-20T04:29:05.079Z,-0.63
2022-11-20T04:31:36.119Z,-0.90
2022-11-20T04:34:07.061Z,-1.15
2022-11-20T04:36:35.640Z,-1.39
2022-11-20T04:39:06.887Z,-1.57
2022-11-20T04:41:37.404Z,-1.73
2022-11-20T04:44:06.911Z,-1.88
2022-11-20T04:46:38.371Z,-2.03
2022-11-20T04:49:07.071Z,-2.17
2022-11-20T04:51:35.541Z,-2.29
2022-11-20T04:54:04.019Z,-2.39
2022-11-20T04:56:32.192Z,-2.47
2022-11-20T04:59:03.743Z,-1.83
2022-11-20T05:01:33.699Z,1.99
2022-11-20T05:04:02.045Z,3.71
2022-11-20T05:06:30.108Z,2.42
2022-11-20T05:08:58.793Z,1.18
2022-11-20T05:11:26.865Z,0.34
2022-11-20T05:13:54.935Z,-0.18
2022-11-20T05:16:24.763Z,-0.56
2022-11-20T05:18:55.442Z,-0.86
2022-11-20T05:21:23.763Z,-1.12
2022-11-20T05:23:51.793Z,-1.36
2022-11-20T05:26:25.029Z,-1.58
2022-11-20T05:28:53.782Z,-1.78
2022-11-20T05:31:28.211Z,-1.95
2022-11-20T05:33:58.164Z,-2.11
2022-11-20T05:36:26.734Z,-2.24
2022-11-20T05:39:01.082Z,-2.36
2022-11-20T05:41:30.258Z,-1.58
2022-11-20T05:43:59.428Z,2.25
2022-11-20T05:46:29.486Z,3.90
2022-11-20T05:48:59.218Z,2.55
2022-11-20T05:51:27.968Z,1.28
2022-11-20T05:53:59.832Z,0.44
2022-11-20T05:56:28.191Z,-0.13
2022-11-20T05:58:57.484Z,-0.54
2022-11-20T06:01:27.404Z,-0.86
2022-11-20T06:03:55.791Z,-1.12
2022-11-20T06:06:24.059Z,-1.36
2022-11-20T06:08:52.233Z,-1.58
2022-11-20T06:11:20.310Z,-1.79
2022-11-20T06:13:49.237Z,-1.97
2022-11-20T06:16:20.008Z,-2.10
2022-11-20T06:18:48.766Z,-2.21
2022-11-20T06:21:20.168Z,-2.31
2022-11-20T06:23:48.738Z,-2.38
2022-11-20T06:26:22.761Z,-2.46
2022-11-20T06:28:52.776Z,-1.80
2022-11-20T06:31:22.996Z,2.17
2022-11-20T06:33:52.369Z,4.10
2022-11-20T06:36:22.939Z,2.77
2022-11-20T06:38:52.235Z,1.45
2022-11-20T06:41:22.659Z,0.61
2022-11-20T06:43:51.499Z,0.05
2022-11-20T06:46:21.280Z,-0.34
2022-11-20T06:48:50.604Z,-0.66
2022-11-20T06:51:19.265Z,-0.91
2022-11-20T06:53:47.418Z,-1.15
2022-11-20T06:56:15.588Z,-1.37
2022-11-20T06:58:43.659Z,-1.56
2022-11-20T07:01:15.122Z,-1.75
2022-11-20T07:03:44.307Z,-1.91
2022-11-20T07:06:12.583Z,-2.05
2022-11-20T07:08:40.763Z,-2.16
2022-11-20T07:11:09.521Z,-2.25
2022-11-20T07:13:37.717Z,-2.33
2022-11-20T07:16:09.273Z,-1.77
2022-11-20T07:18:37.853Z,2.21
2022-11-20T07:21:08.894Z,4.36
2022-11-20T07:23:37.986Z,3.08
2022-11-20T07:26:11.284Z,1.77
2022-11-20T07:28:39.916Z,0.91
2022-11-20T07:31:08.759Z,0.40
2022-11-20T07:33:36.827Z,0.04
2022-11-20T07:36:05.704Z,-0.23
2022-11-20T07:38:33.789Z,-0.45
2022-11-20T07:41:02.835Z,-0.66
2022-11-20T07:43:31.474Z,-0.82
2022-11-20T07:46:01.162Z,-0.95
2022-11-20T07:48:29.250Z,-1.06
2022-11-20T07:50:57.990Z,-1.17
2022-11-20T07:53:26.311Z,-1.28
2022-11-20T07:55:54.492Z,-1.38
2022-11-20T07:58:22.900Z,-0.69
2022-11-20T08:00:51.418Z,3.28
2022-11-20T08:03:24.646Z,5.56
2022-11-20T08:05:53.741Z,4.32
2022-11-20T08:08:22.829Z,3.00
2022-11-20T08:10:50.901Z,2.18
2022-11-20T08:13:37.811Z,1.67
2022-11-20T08:16:06.294Z,1.29
2022-11-20T08:18:34.400Z,1.04
2022-11-20T08:21:06.357Z,0.82
2022-11-20T08:23:34.499Z,0.64
2022-11-20T08:26:02.577Z,0.49
2022-11-20T08:28:30.644Z,0.36
2022-11-20T08:31:00.768Z,1.04
2022-11-20T08:33:29.040Z,4.82
2022-11-20T08:36:04.786Z,6.59
2022-11-20T08:38:33.478Z,5.18
2022-11-20T08:41:21.821Z,3.85
2022-11-20T08:44:00.768Z,2.89
2022-11-20T08:46:34.655Z,2.32
2022-11-20T08:49:02.726Z,1.93
2022-11-20T08:51:31.566Z,1.63
2022-11-20T08:53:59.587Z,1.38
2022-11-20T08:56:28.167Z,1.15
2022-11-20T08:59:18.268Z,0.94
2022-11-20T09:01:44.279Z,1.99
2022-11-20T09:04:13.065Z,5.65
2022-11-20T09:06:41.445Z,6.51
2022-11-20T09:09:09.619Z,5.11
2022-11-20T09:11:37.792Z,3.95
2022-11-20T09:14:05.965Z,3.18
2022-11-20T09:16:34.037Z,2.63
2022-11-20T09:19:33.675Z,2.21
2022-11-20T09:21:50.451Z,1.84
2022-11-20T09:24:19.421Z,1.59
2022-11-20T09:26:47.726Z,1.74
2022-11-20T09:29:15.896Z,4.82
2022-11-20T09:31:44.171Z,7.13
2022-11-20T09:34:12.233Z,6.09
2022-11-20T09:36:40.317Z,4.62
2022-11-20T09:39:08.488Z,3.59
2022-11-20T09:42:01.238Z,2.85
2022-11-20T09:44:39.241Z,2.26
2022-11-20T09:47:14.277Z,1.89
2022-11-20T09:50:18.375Z,1.58
2022-11-20T09:53:01.625Z,2.70
2022-11-20T09:55:32.044Z,6.60
2022-11-20T09:58:00.935Z,6.86
2022-11-20T10:00:30.340Z,5.36
2022-11-20T10:03:13.033Z,4.22
2022-11-20T10:05:46.653Z,3.40
2022-11-20T10:08:37.458Z,2.88
2022-11-20T10:11:19.354Z,2.48
2022-11-20T10:13:50.187Z,2.21
2022-11-20T10:16:38.036Z,2.03
2022-11-20T10:19:36.815Z,3.06
2022-11-20T10:22:12.770Z,7.27
2022-11-20T10:25:19.651Z,7.33
2022-11-20T10:27:47.731Z,5.60
2022-11-20T10:30:18.873Z,4.68
2022-11-20T10:32:52.261Z,4.06
2022-11-20T10:35:29.958Z,3.63
2022-11-20T10:38:01.716Z,3.28
2022-11-20T10:40:44.327Z,2.98
2022-11-20T10:43:15.470Z,2.68
2022-11-20T10:46:17.026Z,2.42
2022-11-20T10:48:47.249Z,2.15
2022-11-20T10:51:21.259Z,1.96
2022-11-20T10:53:58.443Z,1.79
2022-11-20T10:56:36.760Z,2.64
2022-11-20T10:59:25.920Z,6.60
2022-11-20T11:01:54.400Z,7.65
2022-11-20T11:04:38.449Z,6.25
2022-11-20T11:07:18.857Z,5.08
2022-11-20T11:09:53.457Z,4.36
2022-11-20T11:12:25.189Z,3.88
2022-11-20T11:14:56.126Z,3.51
2022-11-20T11:17:35.108Z,3.19
2022-11-20T11:20:12.340Z,2.92
2022-11-20T11:22:58.842Z,2.69
2022-11-20T11:25:38.078Z,2.48
2022-11-20T11:28:26.083Z,3.31
2022-11-20T11:30:54.797Z,7.37
2022-11-20T11:33:28.707Z,8.17
2022-11-20T11:36:00.956Z,6.67
2022-11-20T11:38:37.446Z,5.44
2022-11-20T11:41:07.667Z,4.62
2022-11-20T11:43:57.142Z,4.04
2022-11-20T11:46:30.441Z,3.58
2022-11-20T11:49:00.859Z,3.25
2022-11-20T11:51:56.130Z,2.96
2022-11-20T11:54:49.021Z,2.67
2022-11-20T11:57:20.165Z,2.43
2022-11-20T12:00:07.078Z,3.04
2022-11-20T12:02:47.656Z,7.02
2022-11-20T12:05:23.700Z,8.21
2022-11-20T12:07:51.837Z,6.78
2022-11-20T12:10:36.861Z,5.66
2022-11-20T12:13:34.483Z,4.90
2022-11-20T12:16:04.420Z,4.29
2022-11-20T12:18:33.094Z,3.88
2022-11-20T12:21:17.752Z,3.56
2022-11-20T12:23:58.124Z,3.22
2022-11-20T12:26:44.730Z,2.95
2022-11-20T12:29:18.740Z,3.72
2022-11-20T12:32:17.536Z,7.37
2022-11-20T12:34:46.525Z,8.40
2022-11-20T12:37:52.483Z,7.02
2022-11-20T12:40:30.357Z,5.72
2022-11-20T12:43:34.707Z,5.06
2022-11-20T12:46:08.924Z,4.55
2022-11-20T12:49:04.641Z,4.22
2022-11-20T12:51:35.786Z,3.92
2022-11-20T12:54:22.390Z,3.70
2022-11-20T12:57:03.929Z,3.48
2022-11-20T12:59:52.939Z,3.30
2022-11-20T13:02:31.694Z,3.11
2022-11-20T13:05:30.656Z,2.96
2022-11-20T13:07:59.955Z,4.19
2022-11-20T13:10:45.032Z,7.79
2022-11-20T13:13:51.395Z,8.24
2022-11-20T13:16:47.731Z,6.56
2022-11-20T13:19:18.269Z,5.42
2022-11-20T13:21:50.345Z,4.76
2022-11-20T13:24:25.011Z,4.24
2022-11-20T13:27:08.790Z,3.81
2022-11-20T13:29:38.782Z,3.43
2022-11-20T13:32:18.146Z,3.12
2022-11-20T13:34:57.992Z,3.93
2022-11-20T13:37:36.715Z,7.67
2022-11-20T13:40:13.809Z,8.25
2022-11-20T13:43:14.731Z,6.70
2022-11-20T13:45:43.216Z,5.30
2022-11-20T13:48:23.674Z,4.53
2022-11-20T13:51:00.653Z,3.89
2022-11-20T13:53:39.013Z,3.38
2022-11-20T13:56:07.547Z,3.00
2022-11-20T13:59:05.065Z,3.43
2022-11-20T14:01:34.341Z,7.48
2022-11-20T14:04:10.160Z,8.32
2022-11-20T14:06:47.347Z,6.88
2022-11-20T14:09:34.058Z,5.67
2022-11-20T14:12:03.976Z,4.82
2022-11-20T14:14:34.984Z,4.30
2022-11-20T14:17:19.808Z,3.91
2022-11-20T14:19:51.733Z,3.56
2022-11-20T14:22:27.483Z,3.26
2022-11-20T14:25:07.030Z,3.86
2022-11-20T14:27:38.680Z,7.66
2022-11-20T14:30:18.884Z,8.44
2022-11-20T14:32:48.654Z,6.90
2022-11-20T14:35:25.525Z,5.77
2022-11-20T14:37:55.132Z,5.02
2022-11-20T14:40:25.661Z,4.52
2022-11-20T14:42:54.621Z,4.14
2022-11-20T14:45:24.241Z,3.83
2022-11-20T14:47:58.289Z,3.57
2022-11-20T14:50:28.195Z,3.32
2022-11-20T14:53:01.278Z,4.09
2022-11-20T14:55:35.287Z,7.77
2022-11-20T14:58:21.174Z,8.66
2022-11-20T15:01:04.630Z,7.13
2022-11-20T15:03:41.318Z,5.93
2022-11-20T15:06:13.240Z,5.19
2022-11-20T15:08:51.756Z,4.69
2022-11-20T15:11:26.891Z,4.27
2022-11-20T15:13:55.372Z,3.94
2022-11-20T15:16:25.979Z,3.65
2022-11-20T15:18:54.176Z,4.16
2022-11-20T15:21:22.555Z,7.61
2022-11-20T15:23:50.691Z,8.68
2022-11-20T15:26:26.672Z,7.33
2022-11-20T15:28:55.276Z,6.09
2022-11-20T15:31:24.952Z,5.32
2022-11-20T15:33:53.255Z,4.77
2022-11-20T15:36:21.428Z,4.35
2022-11-20T15:38:49.907Z,3.99
2022-11-20T15:41:17.979Z,3.67
2022-11-20T15:43:46.870Z,4.22
2022-11-20T15:46:24.873Z,7.70
2022-11-20T15:48:56.123Z,8.57
2022-11-20T15:51:36.375Z,7.14
2022-11-20T15:54:13.662Z,5.92
2022-11-20T15:56:41.948Z,5.10
2022-11-20T15:59:10.117Z,4.50
2022-11-20T16:01:38.334Z,4.01
2022-11-20T16:04:13.729Z,3.64
2022-11-20T16:06:42.025Z,3.34
2022-11-20T16:09:10.455Z,4.11
2022-11-20T16:11:38.867Z,7.45
2022-11-20T16:14:26.273Z,8.15
2022-11-20T16:16:54.566Z,6.63
2022-11-20T16:19:22.739Z,5.54
2022-11-20T16:21:50.810Z,4.81
2022-11-20T16:24:19.087Z,4.28
2022-11-20T16:26:47.260Z,3.88
2022-11-20T16:29:15.741Z,3.54
2022-11-20T16:31:43.811Z,3.22
2022-11-20T16:34:12.763Z,3.76
2022-11-20T16:36:43.211Z,7.16
2022-11-20T16:39:12.022Z,8.07
2022-11-20T16:41:40.499Z,6.70
2022-11-20T16:44:11.335Z,5.52
2022-11-20T16:46:41.155Z,4.73
2022-11-20T16:49:15.772Z,4.15
2022-11-20T16:51:44.152Z,3.71
2022-11-20T16:54:16.355Z,3.36
2022-11-20T16:56:48.496Z,3.03
2022-11-20T16:59:16.765Z,3.71
2022-11-20T17:01:45.092Z,7.02
2022-11-20T17:04:13.413Z,7.87
2022-11-20T17:06:48.180Z,6.52
2022-11-20T17:09:16.725Z,5.33
2022-11-20T17:11:45.002Z,4.55
2022-11-20T17:14:13.176Z,3.98
2022-11-20T17:16:41.862Z,3.53
2022-11-20T17:19:10.136Z,3.14
2022-11-20T17:21:39.643Z,3.83
2022-11-20T17:24:10.683Z,7.06
2022-11-20T17:26:41.724Z,7.62
2022-11-20T17:29:18.908Z,6.20
2022-11-20T17:31:47.696Z,5.00
2022-11-20T17:34:16.819Z,4.25
2022-11-20T17:36:46.056Z,3.72
2022-11-20T17:39:15.803Z,3.32
2022-11-20T17:41:44.694Z,2.98
2022-11-20T17:44:13.760Z,3.67
2022-11-20T17:46:41.961Z,6.96
2022-11-20T17:49:10.141Z,7.92
2022-11-20T17:51:38.204Z,6.60
2022-11-20T17:54:09.553Z,5.40
2022-11-20T17:56:56.362Z,4.57
2022-11-20T17:59:24.374Z,3.94
2022-11-20T18:01:52.460Z,3.52
2022-11-20T18:04:20.804Z,3.19
2022-11-20T18:06:48.852Z,3.76
2022-11-20T18:09:17.133Z,7.03
2022-11-20T18:11:45.712Z,8.02
2022-11-20T18:14:28.939Z,6.69
2022-11-20T18:17:04.077Z,5.40
2022-11-20T18:19:41.193Z,4.59
2022-11-20T18:22:18.035Z,3.98
2022-11-20T18:24:46.622Z,3.57
2022-11-20T18:27:17.761Z,3.23
2022-11-20T18:29:48.904Z,3.72
2022-11-20T18:32:17.489Z,6.96
2022-11-20T18:34:45.762Z,8.16
2022-11-20T18:37:15.575Z,6.88
2022-11-20T18:39:44.198Z,5.68
2022-11-20T18:42:32.403Z,4.86
2022-11-20T18:45:01.712Z,4.21
2022-11-20T18:47:32.334Z,3.80
2022-11-20T18:50:03.886Z,3.48
2022-11-20T18:52:39.844Z,3.94
2022-11-20T18:55:08.401Z,7.26
2022-11-20T18:57:36.609Z,8.35
2022-11-20T19:00:09.430Z,7.07
2022-11-20T19:02:42.057Z,5.87
2022-11-20T19:05:12.981Z,5.07
2022-11-20T19:07:41.759Z,4.54
2022-11-20T19:10:10.266Z,4.12
2022-11-20T19:12:38.546Z,3.81
2022-11-20T19:15:07.326Z,3.51
2022-11-20T19:17:35.514Z,3.99
2022-11-20T19:20:04.149Z,7.22
2022-11-20T19:22:32.260Z,8.55
2022-11-20T19:25:00.338Z,7.29
2022-11-20T19:27:28.438Z,6.06
2022-11-20T19:30:03.553Z,5.21
2022-11-20T19:32:32.816Z,4.61
2022-11-20T19:35:01.118Z,4.19
2022-11-20T19:37:29.293Z,3.85
2022-11-20T19:39:59.811Z,3.56
2022-11-20T19:42:28.101Z,4.09
2022-11-20T19:44:58.324Z,7.26
2022-11-20T19:47:40.849Z,8.46
2022-11-20T19:50:16.073Z,7.02
2022-11-20T19:52:44.239Z,5.91
2022-11-20T19:55:12.413Z,5.18
2022-11-20T19:57:40.484Z,4.67
2022-11-20T20:00:09.591Z,4.26
2022-11-20T20:02:37.752Z,3.90
2022-11-20T20:05:06.550Z,3.58
2022-11-20T20:07:34.758Z,4.03
2022-11-20T20:10:03.105Z,7.35
2022-11-20T20:12:31.266Z,8.64
2022-11-20T20:14:59.336Z,7.33
2022-11-20T20:17:27.408Z,6.08
2022-11-20T20:19:55.500Z,5.20
2022-11-20T20:22:23.550Z,4.58
2022-11-20T20:24:52.544Z,4.10
2022-11-20T20:27:20.614Z,3.71
2022-11-20T20:29:48.897Z,3.38
2022-11-20T20:32:16.961Z,3.77
2022-11-20T20:34:45.135Z,7.17
2022-11-20T20:37:13.307Z,8.72
2022-11-20T20:39:41.386Z,7.42
2022-11-20T20:42:10.474Z,6.15
2022-11-20T20:44:57.085Z,5.28
2022-11-20T20:47:30.680Z,4.63
2022-11-20T20:49:58.854Z,4.18
2022-11-20T20:52:27.618Z,3.84
2022-11-20T20:54:56.026Z,3.53
2022-11-20T20:57:25.058Z,3.27
2022-11-20T20:59:53.189Z,3.68
2022-11-20T21:02:22.968Z,6.97
2022-11-20T21:04:51.925Z,8.56
2022-11-20T21:07:20.104Z,7.27
2022-11-20T21:09:48.258Z,6.01
2022-11-20T21:12:16.414Z,5.17
2022-11-20T21:14:44.835Z,4.57
2022-11-20T21:17:15.444Z,4.12
2022-11-20T21:19:43.803Z,3.75
2022-11-20T21:22:11.870Z,3.44
2022-11-20T21:24:39.941Z,3.82
2022-11-20T21:27:08.011Z,7.15
2022-11-20T21:29:36.083Z,8.71
2022-11-20T21:32:04.124Z,7.41
2022-11-20T21:34:32.329Z,6.16
2022-11-20T21:37:00.398Z,5.31
2022-11-20T21:39:30.518Z,4.73
2022-11-20T21:41:58.608Z,4.27
2022-11-20T21:44:31.327Z,3.92
2022-11-20T21:47:09.272Z,3.57
2022-11-20T21:49:39.290Z,4.10
2022-11-20T21:52:07.359Z,7.48
2022-11-20T21:54:36.461Z,8.40
2022-11-20T21:57:04.526Z,7.04
2022-11-20T21:59:32.802Z,5.87
2022-11-20T22:02:00.924Z,5.10
2022-11-20T22:04:29.357Z,4.55
2022-11-20T22:07:02.707Z,4.13
2022-11-20T22:09:30.924Z,3.79
2022-11-20T22:11:58.995Z,4.24
2022-11-20T22:14:27.232Z,7.45
2022-11-20T22:16:55.751Z,8.92
2022-11-20T22:19:24.311Z,7.64
2022-11-20T22:21:52.409Z,6.34
2022-11-20T22:24:22.609Z,5.43
2022-11-20T22:26:51.927Z,4.80
2022-11-20T22:29:21.546Z,4.34
2022-11-20T22:31:52.677Z,3.96
2022-11-20T22:34:21.175Z,3.61
2022-11-20T22:36:49.641Z,4.18
2022-11-20T22:39:17.915Z,7.41
2022-11-20T22:41:46.087Z,8.69
2022-11-20T22:44:15.797Z,7.38
2022-11-20T22:46:43.970Z,6.13
2022-11-20T22:49:12.146Z,5.29
2022-11-20T22:51:41.492Z,4.71
2022-11-20T22:54:12.385Z,4.26
2022-11-20T22:56:41.358Z,3.89
2022-11-20T22:59:09.861Z,3.57
2022-11-20T23:01:38.753Z,4.02
2022-11-20T23:04:11.410Z,7.15
2022-11-20T23:06:39.509Z,8.34
2022-11-20T23:09:09.129Z,7.07
2022-11-20T23:11:37.282Z,5.90
2022-11-20T23:14:08.625Z,5.11
2022-11-20T23:16:36.800Z,4.55
2022-11-20T23:19:08.148Z,4.12
2022-11-20T23:21:38.063Z,3.76
2022-11-20T23:24:06.940Z,3.43
2022-11-20T23:26:37.992Z,4.11
2022-11-20T23:29:06.620Z,7.37
2022-11-20T23:31:35.990Z,8.02
2022-11-20T23:34:05.063Z,6.68
2022-11-20T23:36:33.349Z,5.57
2022-11-20T23:39:01.532Z,4.83
2022-11-20T23:41:29.712Z,4.29
2022-11-20T23:43:57.766Z,3.89
2022-11-20T23:46:26.149Z,3.54
2022-11-20T23:48:54.219Z,3.91
2022-11-20T23:51:22.391Z,7.04
2022-11-20T23:53:50.564Z,8.47
2022-11-20T23:56:18.636Z,7.21
2022-11-20T23:58:46.676Z,5.98
